Alne, United Kingdom
Current Conditions -  °F | °C
As of 1:50 PM on Saturday 25 Oct 2014 (Local Time) from EGXU Reporting Station
Broken Clouds Broken Clouds  
Wind Chill: 55°   Ceiling: 5000
Heat Index: 55°   Visibility: 6mi
Dew Point: 48°   Wind: 22mph
Humidity: 77%   Direction: 220°SW
Pressure: 29.88"   Gusts: NA
Location:  54.08°N, 1.1°W
Report Text: EGXU 251250Z AUTO 22019KT 9999 // BKN050/// 13/09 Q1012
Loading
Personal Weather Stations






























Interactive Weather Map New forecast layout! Learn more

10-Day Weather Forecast

Advertisements
Track Severe Weather on mobile